createdAt,value
2019-02-16T00:04:14.953Z,10.90
2019-02-16T00:09:21.458Z,11.00
2019-02-16T00:14:26.755Z,11.00
2019-02-16T00:19:33.504Z,11.00
2019-02-16T00:24:41.341Z,11.00
2019-02-16T00:29:48.825Z,11.00
2019-02-16T00:34:54.779Z,11.10
2019-02-16T00:40:00.585Z,11.10
2019-02-16T00:45:07.878Z,11.10
2019-02-16T00:50:14.855Z,11.10
2019-02-16T00:55:23.435Z,11.10
2019-02-16T01:00:29.236Z,11.10
2019-02-16T01:05:36.372Z,11.10
2019-02-16T01:10:42.936Z,11.00
2019-02-16T01:15:49.792Z,11.00
2019-02-16T01:20:58.343Z,11.00
2019-02-16T01:26:04.752Z,11.00
2019-02-16T01:31:12.003Z,11.00
2019-02-16T01:36:18.620Z,11.00
2019-02-16T01:41:25.628Z,10.80
2019-02-16T01:46:31.802Z,10.70
2019-02-16T01:51:38.205Z,10.50
2019-02-16T01:56:44.249Z,10.20
2019-02-16T02:01:50.017Z,10.00
2019-02-16T02:06:57.681Z,9.80
2019-02-16T02:12:05.794Z,9.70
2019-02-16T02:17:12.802Z,9.40
2019-02-16T02:22:19.034Z,9.20
2019-02-16T02:27:25.716Z,9.00
2019-02-16T02:32:32.192Z,8.90
2019-02-16T02:37:39.690Z,8.90
2019-02-16T02:42:47.354Z,8.80
2019-02-16T02:47:55.491Z,8.80
2019-02-16T02:53:00.912Z,8.80
2019-02-16T02:58:09.342Z,9.00
2019-02-16T03:03:15.657Z,9.20
2019-02-16T03:08:23.196Z,9.40
2019-02-16T03:13:28.623Z,9.50
2019-02-16T03:18:37.285Z,9.60
2019-02-16T03:23:45.715Z,9.70
2019-02-16T03:29:13.209Z,9.80
2019-02-16T03:34:22.700Z,9.80
2019-02-16T03:39:36.578Z,9.90
2019-02-16T03:44:44.078Z,9.90
2019-02-16T03:49:50.875Z,10.00
2019-02-16T03:54:58.075Z,10.00
2019-02-16T04:00:04.165Z,10.00
2019-02-16T04:05:10.946Z,10.10
2019-02-16T04:10:17.598Z,10.10
2019-02-16T04:15:24.096Z,10.10
2019-02-16T04:20:31.660Z,10.10
2019-02-16T04:25:41.860Z,10.10
2019-02-16T04:30:49.502Z,10.10
2019-02-16T04:35:56.195Z,10.10
2019-02-16T04:41:04.145Z,10.10
2019-02-16T04:46:09.442Z,9.90
2019-02-16T04:51:14.988Z,9.60
2019-02-16T04:56:22.105Z,9.30
2019-02-16T05:01:28.141Z,9.10
2019-02-16T05:06:34.196Z,8.80
2019-02-16T05:11:40.725Z,8.60
2019-02-16T05:16:46.430Z,8.40
2019-02-16T05:21:52.780Z,8.30
2019-02-16T05:26:58.580Z,8.10
2019-02-16T05:32:05.133Z,8.00
2019-02-16T05:37:12.202Z,8.00
2019-02-16T05:42:18.298Z,8.00
2019-02-16T05:47:24.190Z,8.00
2019-02-16T05:52:31.098Z,7.80
2019-02-16T05:57:38.580Z,7.70
2019-02-16T06:02:45.562Z,7.70
2019-02-16T06:07:53.294Z,7.70
2019-02-16T06:13:00.727Z,7.60
2019-02-16T06:18:06.507Z,7.50
2019-02-16T06:23:12.686Z,7.40
2019-02-16T06:28:19.065Z,7.20
2019-02-16T06:33:26.434Z,7.10
2019-02-16T06:38:33.811Z,7.00
2019-02-16T06:43:39.194Z,6.90
2019-02-16T06:48:46.105Z,6.90
2019-02-16T06:53:51.882Z,6.80
2019-02-16T06:58:57.864Z,6.70
2019-02-16T07:04:04.042Z,6.70
2019-02-16T07:09:10.594Z,6.60
2019-02-16T07:14:20.082Z,6.60
2019-02-16T07:19:29.124Z,6.50
2019-02-16T07:24:36.399Z,6.50
2019-02-16T07:29:41.917Z,6.50
2019-02-16T07:34:48.586Z,6.50
2019-02-16T07:39:55.882Z,6.60
2019-02-16T07:45:18.585Z,6.90
2019-02-16T07:50:42.037Z,7.10
2019-02-16T07:56:00.087Z,7.40
2019-02-16T08:01:40.525Z,7.60
2019-02-16T08:07:13.340Z,7.90
2019-02-16T08:12:38.803Z,8.10
2019-02-16T08:18:01.510Z,8.30
2019-02-16T08:23:25.306Z,8.40
2019-02-16T08:28:45.832Z,8.60
2019-02-16T08:34:27.282Z,8.80
2019-02-16T08:40:04.846Z,9.00
2019-02-16T08:45:26.563Z,9.20
2019-02-16T08:50:40.494Z,9.30
2019-02-16T08:56:06.082Z,9.50
2019-02-16T09:01:35.724Z,9.70
2019-02-16T09:07:12.413Z,9.90
2019-02-16T09:12:25.301Z,10.10
2019-02-16T09:17:48.951Z,10.20
2019-02-16T09:23:11.435Z,10.40
2019-02-16T09:28:34.954Z,10.50
2019-02-16T09:34:01.025Z,10.70
2019-02-16T09:39:24.578Z,10.80
2019-02-16T09:44:38.449Z,11.00
2019-02-16T09:55:58.856Z,11.40
2019-02-16T10:01:33.430Z,11.50
2019-02-16T10:07:13.760Z,11.70
2019-02-16T10:12:38.139Z,11.90
2019-02-16T10:18:03.242Z,12.10
2019-02-16T10:23:22.061Z,12.20
2019-02-16T10:28:49.496Z,12.30
2019-02-16T10:34:07.910Z,12.50
2019-02-16T10:39:25.193Z,12.60
2019-02-16T10:44:43.105Z,12.80
2019-02-16T10:50:13.713Z,12.90
2019-02-16T10:55:52.268Z,13.00
2019-02-16T11:01:25.465Z,13.20
2019-02-16T11:06:42.729Z,13.30
2019-02-16T11:11:59.503Z,13.40
2019-02-16T11:17:22.753Z,13.60
2019-02-16T11:22:50.049Z,13.70
2019-02-16T11:28:26.660Z,13.80
2019-02-16T11:33:54.957Z,13.90
2019-02-16T11:39:10.775Z,14.00
2019-02-16T11:44:34.521Z,14.10
2019-02-16T11:49:52.685Z,14.20
2019-02-16T11:55:36.756Z,14.30
2019-02-16T12:00:50.977Z,14.40
2019-02-16T12:06:26.290Z,14.50
2019-02-16T12:11:51.394Z,14.70
2019-02-16T12:17:26.227Z,14.80
2019-02-16T12:22:50.999Z,14.90
2019-02-16T12:28:35.473Z,15.10
2019-02-16T12:34:00.369Z,15.20
2019-02-16T12:39:26.406Z,15.30
2019-02-16T12:44:50.971Z,15.40
2019-02-16T12:50:18.985Z,15.50
2019-02-16T12:55:45.354Z,15.70
2019-02-16T13:01:16.535Z,15.80
2019-02-16T13:06:35.565Z,16.00
2019-02-16T13:12:13.276Z,16.10
2019-02-16T13:17:37.467Z,16.30
2019-02-16T13:22:54.633Z,16.40
2019-02-16T13:28:25.757Z,16.50
2019-02-16T13:33:42.843Z,16.60
2019-02-16T13:39:06.402Z,16.60
2019-02-16T13:44:30.637Z,16.80
2019-02-16T13:49:53.369Z,16.90
2019-02-16T13:55:06.934Z,16.90
2019-02-16T14:00:43.657Z,17.00
2019-02-16T14:06:03.125Z,17.00
2019-02-16T14:11:18.601Z,16.90
2019-02-16T14:16:43.050Z,16.90
2019-02-16T14:21:48.715Z,16.90
2019-02-16T14:26:54.347Z,16.90
2019-02-16T14:32:03.092Z,16.80
2019-02-16T14:37:26.027Z,16.70
2019-02-16T14:42:32.941Z,16.70
2019-02-16T14:47:38.406Z,16.60
2019-02-16T14:52:44.066Z,16.50
2019-02-16T14:57:50.330Z,16.50
2019-02-16T15:02:56.336Z,16.40
2019-02-16T15:08:02.508Z,16.40
2019-02-16T15:13:08.850Z,16.40
2019-02-16T15:18:15.644Z,16.30
2019-02-16T15:23:20.685Z,16.30
2019-02-16T15:28:26.742Z,16.30
2019-02-16T15:33:32.303Z,16.30
2019-02-16T15:38:38.638Z,16.30
2019-02-16T15:43:45.541Z,16.20
2019-02-16T15:48:52.485Z,16.20
2019-02-16T15:53:59.883Z,16.10
2019-02-16T15:59:05.342Z,16.00
2019-02-16T16:04:11.134Z,16.00
2019-02-16T16:09:37.000Z,15.90
2019-02-16T16:15:07.981Z,15.80
2019-02-16T16:20:35.846Z,15.70
2019-02-16T16:25:59.199Z,15.60
2019-02-16T16:31:21.907Z,15.50
2019-02-16T16:36:49.881Z,15.40
2019-02-16T16:42:14.238Z,15.20
2019-02-16T16:47:40.317Z,14.90
2019-02-16T16:52:56.833Z,14.60
2019-02-16T16:58:09.436Z,14.40
2019-02-16T17:03:33.365Z,14.10
2019-02-16T17:08:57.461Z,13.80
2019-02-16T17:14:14.157Z,13.50
2019-02-16T17:19:45.283Z,13.30
2019-02-16T17:25:13.657Z,13.10
2019-02-16T17:30:36.747Z,12.90
2019-02-16T17:35:47.180Z,12.70
2019-02-16T17:41:13.928Z,12.50
2019-02-16T17:46:39.727Z,12.40
2019-02-16T17:52:04.306Z,12.30
2019-02-16T17:57:28.410Z,12.10
2019-02-16T18:02:54.330Z,11.90
2019-02-16T18:08:34.619Z,11.70
2019-02-16T18:14:03.362Z,11.50
2019-02-16T18:19:36.916Z,11.40
2019-02-16T18:25:00.913Z,11.20
2019-02-16T18:30:31.593Z,11.10
2019-02-16T18:35:59.149Z,11.00
2019-02-16T18:41:30.548Z,10.80
2019-02-16T18:46:53.275Z,10.60
2019-02-16T18:52:17.629Z,10.50
2019-02-16T18:57:43.357Z,10.40
2019-02-16T19:03:08.140Z,10.20
2019-02-16T19:08:36.994Z,10.10
2019-02-16T19:14:11.003Z,10.00
2019-02-16T19:19:33.840Z,9.90
2019-02-16T19:24:47.172Z,9.80
2019-02-16T19:30:20.634Z,9.80
2019-02-16T19:35:48.153Z,9.70
2019-02-16T19:41:12.672Z,9.60
2019-02-16T19:46:28.562Z,9.50
2019-02-16T19:51:56.867Z,9.40
2019-02-16T19:57:26.831Z,9.30
2019-02-16T20:02:48.836Z,9.20
2019-02-16T20:08:16.595Z,9.10
2019-02-16T20:13:39.794Z,9.00
2019-02-16T20:19:07.849Z,8.90
2019-02-16T20:24:31.731Z,8.80
2019-02-16T20:29:56.295Z,8.70
2019-02-16T20:35:23.761Z,8.60
2019-02-16T20:40:40.233Z,8.50
2019-02-16T20:46:04.609Z,8.50
2019-02-16T20:51:31.836Z,8.40
2019-02-16T20:56:48.046Z,8.30
2019-02-16T21:02:33.008Z,8.20
2019-02-16T21:07:47.264Z,8.10
2019-02-16T21:12:58.350Z,8.00
2019-02-16T21:18:15.279Z,7.90
2019-02-16T21:23:43.882Z,7.90
2019-02-16T21:29:08.401Z,7.80
2019-02-16T21:34:24.508Z,7.80
2019-02-16T21:39:42.000Z,7.70
2019-02-16T21:44:55.989Z,7.60
2019-02-16T21:50:24.109Z,7.50
2019-02-16T21:55:40.285Z,7.50
2019-02-16T22:01:04.185Z,7.30
2019-02-16T22:06:35.515Z,7.20
2019-02-16T22:11:58.485Z,7.20
2019-02-16T22:17:04.794Z,7.10
2019-02-16T22:22:10.779Z,7.00
2019-02-16T22:27:16.328Z,7.00
2019-02-16T22:32:23.061Z,7.00
2019-02-16T22:37:29.480Z,6.90
2019-02-16T22:42:36.060Z,6.90
2019-02-16T22:47:43.088Z,6.80
2019-02-16T22:52:49.474Z,6.70
2019-02-16T22:57:56.140Z,6.70
2019-02-16T23:03:03.700Z,6.60
2019-02-16T23:08:09.722Z,6.50
2019-02-16T23:13:15.469Z,6.50
2019-02-16T23:18:21.285Z,6.50
2019-02-16T23:23:28.503Z,6.40
2019-02-16T23:28:38.789Z,6.30
2019-02-16T23:33:42.768Z,6.30
2019-02-16T23:38:49.741Z,6.20
2019-02-16T23:43:57.237Z,6.20
2019-02-16T23:49:04.546Z,6.20
2019-02-16T23:54:11.414Z,6.20
2019-02-16T23:59:18.751Z,6.20
